createdAt,value
2023-01-08T00:00:19.403Z,99377.59
2023-01-08T00:01:25.662Z,99368.75
2023-01-08T00:02:34.031Z,99376.50
2023-01-08T00:03:47.622Z,99368.53
2023-01-08T00:04:52.706Z,99372.94
2023-01-08T00:06:00.762Z,99365.97
2023-01-08T00:07:07.065Z,99374.72
2023-01-08T00:08:11.523Z,99369.53
2023-01-08T00:09:15.166Z,99371.13
2023-01-08T00:10:19.687Z,99360.63
2023-01-08T00:11:23.466Z,99366.75
2023-01-08T00:12:27.066Z,99360.56
2023-01-08T00:13:30.659Z,99367.56
2023-01-08T00:14:34.349Z,99367.56
2023-01-08T00:15:37.888Z,99359.66
2023-01-08T00:16:44.688Z,99352.59
2023-01-08T00:17:48.284Z,99350.91
2023-01-08T00:18:51.845Z,99352.69
2023-01-08T00:19:56.080Z,99353.44
2023-01-08T00:21:01.024Z,99349.16
2023-01-08T00:22:04.754Z,99353.38
2023-01-08T00:23:15.841Z,99344.69
2023-01-08T00:24:21.147Z,99347.94
2023-01-08T00:25:24.824Z,99354.94
2023-01-08T00:26:28.744Z,99354.00
2023-01-08T00:27:32.586Z,99351.47
2023-01-08T00:28:37.949Z,99354.00
2023-01-08T00:29:41.562Z,99340.00
2023-01-08T00:30:45.453Z,99343.25
2023-01-08T00:31:49.216Z,99344.13
2023-01-08T00:32:53.465Z,99338.13
2023-01-08T00:33:57.012Z,99330.09
2023-01-08T00:35:01.727Z,99344.19
2023-01-08T00:36:11.827Z,99334.59
2023-01-08T00:37:19.058Z,99335.34
2023-01-08T00:38:27.597Z,99338.94
2023-01-08T00:39:31.458Z,99329.38
2023-01-08T00:40:35.857Z,99331.06
2023-01-08T00:41:39.564Z,99334.63
2023-01-08T00:42:43.297Z,99339.78
2023-01-08T00:43:47.177Z,99345.91
2023-01-08T00:44:50.796Z,99346.03
2023-01-08T00:45:54.754Z,99335.50
2023-01-08T00:46:58.336Z,99340.75
2023-01-08T00:48:02.233Z,99342.53
2023-01-08T00:49:05.853Z,99339.91
2023-01-08T00:50:10.648Z,99340.50
2023-01-08T00:51:14.433Z,99342.19
2023-01-08T00:52:18.464Z,99338.13
2023-01-08T00:53:23.193Z,99340.63
2023-01-08T00:54:27.039Z,99341.34
2023-01-08T00:55:31.488Z,99334.38
2023-01-08T00:56:35.264Z,99335.44
2023-01-08T00:57:40.148Z,99330.03
2023-01-08T00:58:43.915Z,99333.56
2023-01-08T00:59:50.133Z,99335.34
2023-01-08T01:00:53.731Z,99330.81
2023-01-08T01:01:57.519Z,99330.66
2023-01-08T01:03:01.257Z,99336.94
2023-01-08T01:04:05.186Z,99341.09
2023-01-08T01:05:10.117Z,99334.94
2023-01-08T01:06:15.094Z,99343.81
2023-01-08T01:07:19.091Z,99338.47
2023-01-08T01:08:23.147Z,99336.63
2023-01-08T01:09:26.812Z,99326.09
2023-01-08T01:10:30.524Z,99332.34
2023-01-08T01:11:34.369Z,99322.75
2023-01-08T01:12:39.591Z,99326.22
2023-01-08T01:13:43.359Z,99328.94
2023-01-08T01:14:47.730Z,99326.22
2023-01-08T01:16:02.124Z,99324.44
2023-01-08T01:17:05.974Z,99324.53
2023-01-08T01:18:12.588Z,99326.38
2023-01-08T01:19:18.366Z,99322.81
2023-01-08T01:20:23.888Z,99329.03
2023-01-08T01:21:32.577Z,99325.47
2023-01-08T01:22:36.931Z,99328.09
2023-01-08T01:23:41.428Z,99328.09
2023-01-08T01:24:45.017Z,99330.72
2023-01-08T01:25:48.828Z,99323.69
2023-01-08T01:26:52.809Z,99323.59
2023-01-08T01:27:56.301Z,99331.50
2023-01-08T01:29:01.080Z,99322.75
2023-01-08T01:30:06.900Z,99320.19
2023-01-08T01:31:14.064Z,99320.19
2023-01-08T01:32:19.445Z,99319.41
2023-01-08T01:33:26.109Z,99323.75
2023-01-08T01:34:29.911Z,99322.91
2023-01-08T01:35:33.627Z,99318.63
2023-01-08T01:36:38.084Z,99318.63
2023-01-08T01:37:41.703Z,99326.59
2023-01-08T01:38:48.145Z,99323.13
2023-01-08T01:39:52.166Z,99314.41
2023-01-08T01:40:55.957Z,99314.41
2023-01-08T01:41:59.871Z,99311.00
2023-01-08T01:43:03.512Z,99311.00
2023-01-08T01:44:45.701Z,99313.69
2023-01-08T01:45:49.760Z,99306.81
2023-01-08T01:46:53.590Z,99306.16
2023-01-08T01:48:10.368Z,99300.97
2023-01-08T01:49:22.741Z,99299.19
2023-01-08T01:50:51.966Z,99302.91
2023-01-08T01:52:02.510Z,99291.66
2023-01-08T01:53:27.718Z,99305.84
2023-01-08T01:54:32.505Z,99293.75
2023-01-08T01:55:40.851Z,99297.47
2023-01-08T01:56:46.344Z,99296.75
2023-01-08T01:58:11.642Z,99288.28
2023-01-08T01:59:16.984Z,99290.13
2023-01-08T02:00:22.220Z,99286.84
2023-01-08T02:01:27.286Z,99281.03
2023-01-08T02:02:32.758Z,99274.06
2023-01-08T02:03:39.669Z,99279.41
2023-01-08T02:04:43.760Z,99276.94
2023-01-08T02:06:09.495Z,99269.03
2023-01-08T02:07:42.972Z,99274.50
2023-01-08T02:08:52.258Z,99280.59
2023-01-08T02:10:32.108Z,99271.00
2023-01-08T02:12:18.766Z,99269.31
2023-01-08T02:13:37.602Z,99268.53
2023-01-08T02:15:08.163Z,99275.50
2023-01-08T02:16:25.225Z,99270.28
2023-01-08T02:17:45.693Z,99260.66
2023-01-08T02:19:03.033Z,99265.81
2023-01-08T02:20:51.447Z,99265.81
2023-01-08T02:22:30.711Z,99266.75
2023-01-08T02:24:00.869Z,99262.41
2023-01-08T02:25:30.831Z,99257.13
2023-01-08T02:26:37.323Z,99254.84
2023-01-08T02:27:49.049Z,99254.66
2023-01-08T02:29:00.618Z,99252.03
2023-01-08T02:30:06.311Z,99254.66
2023-01-08T02:31:13.236Z,99254.56
2023-01-08T02:32:17.369Z,99246.06
2023-01-08T02:33:22.676Z,99243.47
2023-01-08T02:34:27.531Z,99243.47
2023-01-08T02:35:52.343Z,99249.59
2023-01-08T02:36:57.332Z,99256.72
2023-01-08T02:38:00.828Z,99252.22
2023-01-08T02:39:40.648Z,99252.53
2023-01-08T02:41:09.724Z,99253.31
2023-01-08T02:42:37.831Z,99249.91
2023-01-08T02:43:52.295Z,99244.00
2023-01-08T02:45:29.110Z,99242.28
2023-01-08T02:46:36.567Z,99244.97
2023-01-08T02:48:00.162Z,99246.75
2023-01-08T02:49:10.428Z,99242.56
2023-01-08T02:50:40.778Z,99244.19
2023-01-08T02:51:53.740Z,99245.19
2023-01-08T02:53:18.458Z,99244.44
2023-01-08T02:54:30.282Z,99242.78
2023-01-08T02:55:38.067Z,99249.88
2023-01-08T02:56:48.267Z,99237.66
2023-01-08T02:57:52.813Z,99241.16
2023-01-08T02:58:59.948Z,99250.03
2023-01-08T03:00:06.500Z,99242.06
2023-01-08T03:55:13.185Z,99208.16
2023-01-08T03:56:17.211Z,99207.31
2023-01-08T03:57:21.679Z,99212.66
2023-01-08T03:58:25.557Z,99207.31
2023-01-08T03:59:29.384Z,99207.53
2023-01-08T04:00:33.322Z,99209.16
2023-01-08T04:01:37.093Z,99206.69
2023-01-08T04:02:42.460Z,99203.13
2023-01-08T04:03:46.274Z,99198.81
2023-01-08T04:04:50.005Z,99198.84
2023-01-08T04:05:54.141Z,99198.84
2023-01-08T04:06:57.947Z,99205.84
2023-01-08T04:08:01.729Z,99203.25
2023-01-08T04:09:08.225Z,99204.19
2023-01-08T04:10:12.069Z,99201.47
2023-01-08T04:11:16.313Z,99207.66
2023-01-08T04:12:20.898Z,99191.88
2023-01-08T04:13:25.179Z,99207.72
2023-01-08T04:14:29.175Z,99202.47
2023-01-08T04:15:34.469Z,99193.06
2023-01-08T04:16:38.454Z,99193.03
2023-01-08T04:17:42.113Z,99198.28
2023-01-08T04:18:45.968Z,99204.44
2023-01-08T04:19:50.090Z,99194.84
2023-01-08T04:20:54.007Z,99196.69
2023-01-08T04:21:57.988Z,99197.47
2023-01-08T04:23:02.229Z,99203.72
2023-01-08T04:24:09.275Z,99207.53
2023-01-08T04:25:13.093Z,99206.56
2023-01-08T04:26:17.914Z,99202.09
2023-01-08T04:27:21.655Z,99201.25
2023-01-08T04:28:25.855Z,99199.75
2023-01-08T04:29:29.688Z,99207.75
2023-01-08T04:30:33.699Z,99201.78
2023-01-08T04:31:37.353Z,99201.97
2023-01-08T04:32:41.308Z,99202.28
2023-01-08T04:33:45.185Z,99205.78
2023-01-08T04:34:49.137Z,99205.06
2023-01-08T04:35:52.817Z,99197.25
2023-01-08T04:36:56.974Z,99199.06
2023-01-08T04:38:00.826Z,99195.25
2023-01-08T04:39:07.823Z,99207.16
2023-01-08T04:40:11.943Z,99202.03
2023-01-08T04:41:18.573Z,99213.25
2023-01-08T04:42:23.023Z,99202.75
2023-01-08T04:43:28.508Z,99204.47
2023-01-08T04:44:32.515Z,99203.69
2023-01-08T04:45:36.309Z,99207.16
2023-01-08T04:46:40.237Z,99200.25
2023-01-08T04:47:43.932Z,99204.56
2023-01-08T04:48:47.990Z,99202.16
2023-01-08T04:49:51.680Z,99204.66
2023-01-08T04:50:58.555Z,99193.28
2023-01-08T04:52:02.507Z,99197.63
2023-01-08T04:53:07.159Z,99196.06
2023-01-08T04:54:11.179Z,99195.25
2023-01-08T04:55:14.860Z,99195.25
2023-01-08T04:56:19.056Z,99201.63
2023-01-08T04:57:22.864Z,99196.31
2023-01-08T04:58:26.616Z,99199.00
2023-01-08T04:59:30.573Z,99200.81
2023-01-08T05:00:34.987Z,99190.47
2023-01-08T05:01:39.124Z,99194.84
2023-01-08T05:02:43.202Z,99196.56
2023-01-08T05:03:47.029Z,99200.88
2023-01-08T05:04:50.688Z,99201.03
2023-01-08T05:05:55.020Z,99194.00
2023-01-08T05:06:59.153Z,99188.84
2023-01-08T05:08:03.463Z,99183.69
2023-01-08T05:09:11.902Z,99189.00
2023-01-08T05:10:15.798Z,99189.00
2023-01-08T05:11:23.117Z,99197.06
2023-01-08T05:12:26.798Z,99192.97
2023-01-08T05:13:30.978Z,99196.53
2023-01-08T05:14:34.820Z,99199.16
2023-01-08T05:15:38.624Z,99197.19
2023-01-08T05:16:42.466Z,99189.16
2023-01-08T05:17:46.258Z,99195.56
2023-01-08T05:18:50.254Z,99195.59
2023-01-08T05:19:54.142Z,99197.44
2023-01-08T05:21:03.127Z,99189.41
2023-01-08T05:22:09.974Z,99188.34
2023-01-08T05:23:13.832Z,99190.00
2023-01-08T05:24:17.673Z,99190.00
2023-01-08T05:25:22.153Z,99191.69
2023-01-08T05:26:25.864Z,99196.94
2023-01-08T05:27:29.722Z,99195.19
2023-01-08T05:28:34.175Z,99190.09
2023-01-08T05:29:39.142Z,99187.47
2023-01-08T05:30:42.712Z,99180.97
2023-01-08T05:31:47.196Z,99180.25
2023-01-08T05:32:51.042Z,99173.47
2023-01-08T05:33:54.883Z,99177.63
2023-01-08T05:34:59.061Z,99170.59
2023-01-08T05:36:10.763Z,99168.91
2023-01-08T05:37:14.711Z,99174.06
2023-01-08T05:38:19.056Z,99176.75
2023-01-08T05:39:23.182Z,99175.84
2023-01-08T05:40:27.133Z,99178.78
2023-01-08T05:41:31.079Z,99181.25
2023-01-08T05:42:36.261Z,99172.50
2023-01-08T05:43:39.994Z,99163.97
2023-01-08T05:44:44.932Z,99173.53
2023-01-08T05:45:49.231Z,99168.41
2023-01-08T05:46:57.228Z,99168.53
2023-01-08T05:48:07.988Z,99167.69
2023-01-08T05:49:11.987Z,99160.00
2023-01-08T05:50:15.930Z,99157.38
2023-01-08T05:51:19.547Z,99153.94
2023-01-08T05:52:23.578Z,99154.09
2023-01-08T05:53:27.651Z,99151.53
2023-01-08T05:54:31.708Z,99148.22
2023-01-08T05:55:37.522Z,99143.78
2023-01-08T05:56:44.154Z,99150.72
2023-01-08T05:57:48.006Z,99137.81
2023-01-08T05:58:56.038Z,99137.69
2023-01-08T06:00:00.642Z,99142.13
2023-01-08T06:01:16.645Z,99150.00
2023-01-08T06:02:20.669Z,99155.25
2023-01-08T06:03:24.893Z,99153.41
2023-01-08T06:04:29.266Z,99154.50
2023-01-08T06:05:33.925Z,99157.19
2023-01-08T06:06:38.851Z,99155.34
2023-01-08T06:07:42.791Z,99152.69
2023-01-08T06:08:48.116Z,99143.84
2023-01-08T06:09:52.073Z,99141.22
2023-01-08T06:11:03.031Z,99144.81
2023-01-08T06:12:09.449Z,99151.03
2023-01-08T06:13:13.922Z,99155.47
2023-01-08T06:14:18.117Z,99147.69
2023-01-08T06:15:21.997Z,99147.69
2023-01-08T06:16:28.761Z,99151.16
2023-01-08T06:17:35.332Z,99151.03
2023-01-08T06:18:39.538Z,99152.25
2023-01-08T06:19:43.806Z,99154.03
2023-01-08T06:20:48.331Z,99153.88
2023-01-08T06:21:52.116Z,99160.19
2023-01-08T06:22:56.281Z,99154.09
2023-01-08T06:24:00.225Z,99151.47
2023-01-08T06:25:05.272Z,99148.91
2023-01-08T06:26:11.407Z,99153.16
2023-01-08T06:27:15.115Z,99146.16
2023-01-08T06:28:19.065Z,99146.09
2023-01-08T06:29:22.772Z,99148.84
2023-01-08T06:30:26.692Z,99157.44
2023-01-08T06:31:33.691Z,99143.66
2023-01-08T06:32:37.551Z,99146.22
2023-01-08T06:33:41.270Z,99147.84
2023-01-08T06:34:45.091Z,99147.75
2023-01-08T06:35:49.244Z,99139.13
2023-01-08T06:36:53.054Z,99138.44
2023-01-08T06:37:57.048Z,99140.28
2023-01-08T06:39:01.240Z,99139.50
2023-01-08T06:40:05.396Z,99136.34
2023-01-08T06:41:11.379Z,99135.41
2023-01-08T06:42:15.746Z,99138.81
2023-01-08T06:43:23.906Z,99137.91
2023-01-08T06:44:31.179Z,99143.09
2023-01-08T06:45:34.936Z,99145.72
2023-01-08T06:46:41.132Z,99143.03
2023-01-08T06:47:45.035Z,99144.75
2023-01-08T06:48:48.641Z,99149.38
2023-01-08T06:49:52.486Z,99138.88
2023-01-08T06:51:00.979Z,99146.75
2023-01-08T06:52:04.679Z,99147.66
2023-01-08T06:53:10.532Z,99144.84
2023-01-08T06:54:14.816Z,99143.09
2023-01-08T06:55:19.384Z,99144.00
2023-01-08T06:56:23.223Z,99144.75
2023-01-08T06:57:27.580Z,99151.69
2023-01-08T06:58:34.834Z,99149.06
2023-01-08T06:59:38.917Z,99154.25
2023-01-08T07:00:50.680Z,99148.06
2023-01-08T07:01:54.487Z,99145.44
2023-01-08T07:02:58.754Z,99151.53
2023-01-08T07:04:03.287Z,99147.16
2023-01-08T07:05:12.400Z,99153.31
2023-01-08T07:06:22.885Z,99145.31
2023-01-08T07:07:30.446Z,99145.22
2023-01-08T07:08:36.070Z,99150.41
2023-01-08T07:09:41.617Z,99156.50
2023-01-08T07:10:49.081Z,99152.19
2023-01-08T07:11:53.109Z,99152.06
2023-01-08T07:12:57.132Z,99157.13
2023-01-08T07:14:00.995Z,99151.84
2023-01-08T07:15:05.665Z,99148.22
2023-01-08T07:16:15.068Z,99145.53
2023-01-08T07:17:19.011Z,99144.56
2023-01-08T07:18:22.947Z,99147.91
2023-01-08T07:19:26.531Z,99147.00
2023-01-08T07:20:30.302Z,99149.53
2023-01-08T07:21:34.419Z,99147.63
2023-01-08T07:22:38.223Z,99153.63
2023-01-08T07:23:42.103Z,99146.63
2023-01-08T07:24:46.624Z,99150.06
2023-01-08T07:25:50.980Z,99147.38
2023-01-08T07:26:54.720Z,99142.97
2023-01-08T07:27:59.303Z,99142.91
2023-01-08T07:29:04.182Z,99145.47
2023-01-08T07:30:28.267Z,99141.06
2023-01-08T07:31:33.731Z,99136.56
2023-01-08T07:32:37.917Z,99134.72
2023-01-08T07:33:41.872Z,99140.72
2023-01-08T07:34:45.914Z,99141.41
2023-01-08T07:35:57.564Z,99137.03
2023-01-08T07:37:08.322Z,99127.25
2023-01-08T07:38:16.834Z,99131.59
2023-01-08T07:39:20.641Z,99126.19
2023-01-08T07:40:25.849Z,99114.16
2023-01-08T07:41:30.171Z,99117.63
2023-01-08T07:42:34.165Z,99108.97
2023-01-08T07:43:38.271Z,99114.00
2023-01-08T07:44:42.479Z,99116.56
2023-01-08T07:45:46.370Z,99113.88
2023-01-08T07:46:50.494Z,99110.34
2023-01-08T07:47:54.573Z,99104.16
2023-01-08T07:49:00.098Z,99105.88
2023-01-08T07:50:04.912Z,99116.44
2023-01-08T07:51:12.703Z,99110.97
2023-01-08T07:52:17.334Z,99112.56
2023-01-08T07:53:21.519Z,99116.13
2023-01-08T07:54:25.902Z,99113.28
2023-01-08T07:55:31.613Z,99111.47
2023-01-08T07:56:39.351Z,99107.91
2023-01-08T07:57:44.332Z,99111.47
2023-01-08T07:58:48.605Z,99107.84
2023-01-08T07:59:53.095Z,99109.47
2023-01-08T08:00:59.372Z,99104.16
2023-01-08T08:02:03.691Z,99108.44
2023-01-08T08:03:15.254Z,99101.41
2023-01-08T08:04:19.513Z,99099.56
2023-01-08T08:05:23.735Z,99087.22
2023-01-08T08:06:28.265Z,99094.25
2023-01-08T08:07:34.960Z,99086.31
2023-01-08T08:08:41.241Z,99086.31
2023-01-08T08:09:46.308Z,99086.31
2023-01-08T08:10:50.568Z,99089.72
2023-01-08T08:11:54.407Z,99091.47
2023-01-08T08:12:58.716Z,99092.25
2023-01-08T08:14:03.195Z,99083.41
2023-01-08T08:15:15.212Z,99089.44
2023-01-08T08:16:21.315Z,99087.81
2023-01-08T08:17:27.150Z,99084.34
2023-01-08T08:18:31.712Z,99079.09
2023-01-08T08:19:35.356Z,99081.72
2023-01-08T08:20:40.375Z,99068.03
2023-01-08T08:21:44.384Z,99073.88
2023-01-08T08:22:47.989Z,99071.22
2023-01-08T08:23:51.801Z,99071.91
2023-01-08T08:24:56.086Z,99075.47
2023-01-08T08:26:03.438Z,99068.28
2023-01-08T08:27:11.108Z,99072.56
2023-01-08T08:28:15.069Z,99066.47
2023-01-08T08:29:18.809Z,99076.81
2023-01-08T08:30:29.313Z,99066.38
2023-01-08T08:31:33.792Z,99064.69
2023-01-08T08:32:38.212Z,99063.53
2023-01-08T08:33:43.414Z,99061.06
2023-01-08T08:34:52.571Z,99054.59
2023-01-08T08:35:56.573Z,99051.81
2023-01-08T08:37:02.174Z,99046.38
2023-01-08T08:38:08.466Z,99048.88
2023-01-08T08:39:12.601Z,99040.75
2023-01-08T08:40:16.963Z,99031.19
2023-01-08T08:41:20.970Z,99032.88
2023-01-08T08:42:28.155Z,99033.81
2023-01-08T08:43:32.159Z,99032.03
2023-01-08T08:44:36.056Z,99028.56
2023-01-08T08:45:40.752Z,99032.03
2023-01-08T08:46:46.393Z,99032.75
2023-01-08T08:47:55.358Z,99040.31
2023-01-08T08:48:59.493Z,99039.44
2023-01-08T08:50:13.750Z,99044.38
2023-01-08T08:51:18.814Z,99037.28
2023-01-08T08:52:47.177Z,99041.38
2023-01-08T08:53:56.680Z,99037.78
2023-01-08T08:55:09.501Z,99044.56
2023-01-08T08:56:21.559Z,99039.19
2023-01-08T08:57:29.778Z,99046.00
2023-01-08T08:58:41.676Z,99044.06
2023-01-08T08:59:48.187Z,99041.22
2023-01-08T09:00:56.295Z,99038.53
2023-01-08T09:02:31.399Z,99043.50
2023-01-08T09:03:45.615Z,99029.47
2023-01-08T09:04:50.425Z,99033.44
2023-01-08T09:05:59.633Z,99028.78
2023-01-08T09:07:08.300Z,99026.63
2023-01-08T09:08:16.828Z,99029.03
2023-01-08T09:09:24.360Z,99030.59
2023-01-08T09:10:31.272Z,99027.91
2023-01-08T09:11:36.377Z,99018.00
2023-01-08T09:12:45.084Z,99037.56
2023-01-08T09:14:08.337Z,99027.50
2023-01-08T09:15:27.676Z,99014.88
2023-01-08T09:16:37.592Z,99020.75
2023-01-08T09:17:48.492Z,99025.84
2023-01-08T09:18:55.061Z,99013.53
2023-01-08T09:19:58.912Z,99020.31
2023-01-08T09:21:14.319Z,99019.09
2023-01-08T09:22:18.926Z,99016.13
2023-01-08T09:23:23.340Z,99011.59
2023-01-08T09:24:27.953Z,99014.31
2023-01-08T09:25:34.588Z,99004.69
2023-01-08T09:26:43.632Z,99001.44
2023-01-08T09:27:50.155Z,99002.53
2023-01-08T09:28:56.830Z,99008.13
2023-01-08T09:30:17.755Z,99002.38
2023-01-08T09:31:27.253Z,98990.31
2023-01-08T09:32:32.715Z,98993.34
2023-01-08T09:33:38.043Z,98994.78
2023-01-08T09:34:42.424Z,99002.16
2023-01-08T09:35:56.951Z,98991.22
2023-01-08T09:37:13.283Z,98989.16
2023-01-08T09:38:30.028Z,98986.41
2023-01-08T09:39:47.994Z,98988.97
2023-01-08T09:41:18.746Z,98988.88
2023-01-08T09:42:52.583Z,98986.41
2023-01-08T09:44:35.897Z,98987.25
2023-01-08T09:45:55.497Z,98975.47
2023-01-08T09:47:01.104Z,98980.59
2023-01-08T09:48:31.884Z,98975.09
2023-01-08T09:49:45.691Z,98974.16
2023-01-08T09:50:49.675Z,98964.63
2023-01-08T09:51:55.979Z,98962.53
2023-01-08T09:53:00.845Z,98959.81
2023-01-08T09:54:16.385Z,98964.53
2023-01-08T09:55:24.375Z,98958.31
2023-01-08T09:56:33.723Z,98956.41
2023-01-08T09:57:50.546Z,98959.81
2023-01-08T09:59:11.100Z,98958.66
2023-01-08T10:00:31.478Z,98950.84
2023-01-08T10:01:41.490Z,98955.19
2023-01-08T10:03:04.703Z,98948.31
2023-01-08T10:04:15.627Z,98951.22
2023-01-08T10:05:19.840Z,98943.19
2023-01-08T10:06:25.994Z,98939.53
2023-01-08T10:07:35.101Z,98941.13
2023-01-08T10:08:43.008Z,98936.41
2023-01-08T10:09:48.022Z,98941.50
2023-01-08T10:10:53.865Z,98931.72
2023-01-08T10:12:06.264Z,98939.53
2023-01-08T10:13:13.764Z,98940.56
2023-01-08T10:14:39.422Z,98936.13
2023-01-08T10:16:00.604Z,98926.97
2023-01-08T10:17:25.414Z,98928.66
2023-01-08T10:18:37.133Z,98926.88
2023-01-08T10:19:41.770Z,98930.28
2023-01-08T10:20:58.985Z,98925.38
2023-01-08T10:22:03.474Z,98922.63
2023-01-08T10:23:16.055Z,98920.84
2023-01-08T10:24:45.140Z,98917.19
2023-01-08T10:26:07.717Z,98923.22
2023-01-08T10:27:25.482Z,98910.84
2023-01-08T10:28:32.246Z,98909.06
2023-01-08T10:29:36.582Z,98907.34
2023-01-08T10:30:40.922Z,98910.75
2023-01-08T10:32:01.795Z,98904.50
2023-01-08T10:33:15.124Z,98902.06
2023-01-08T10:34:58.391Z,98896.31
2023-01-08T10:36:13.378Z,98889.91
2023-01-08T10:37:39.816Z,98880.22
2023-01-08T10:39:02.798Z,98877.00
2023-01-08T10:40:32.343Z,98875.19
2023-01-08T10:41:42.428Z,98869.91
2023-01-08T10:42:48.261Z,98869.06
2023-01-08T10:43:54.800Z,98870.66
2023-01-08T10:45:12.295Z,98878.50
2023-01-08T10:46:27.368Z,98876.69
2023-01-08T10:47:36.409Z,98873.97
2023-01-08T10:48:57.744Z,98880.97
2023-01-08T10:50:04.508Z,98875.66
2023-01-08T10:51:20.476Z,98875.56
2023-01-08T10:52:32.946Z,98869.53
2023-01-08T10:53:38.048Z,98865.84
2023-01-08T10:54:42.827Z,98864.16
2023-01-08T10:55:59.171Z,98857.53
2023-01-08T10:57:20.730Z,98854.34
2023-01-08T10:58:27.199Z,98853.22
2023-01-08T10:59:37.166Z,98848.88
2023-01-08T11:00:47.154Z,98856.69
2023-01-08T11:01:58.050Z,98848.78
2023-01-08T11:03:13.472Z,98847.19
2023-01-08T11:04:37.672Z,98845.88
2023-01-08T11:05:44.647Z,98840.19
2023-01-08T11:06:49.364Z,98853.03
2023-01-08T11:07:58.503Z,98848.59
2023-01-08T11:09:30.240Z,98847.94
2023-01-08T11:10:41.546Z,98842.84
2023-01-08T11:11:49.761Z,98842.66
2023-01-08T11:13:11.587Z,98845.47
2023-01-08T11:14:29.833Z,98844.16
2023-01-08T11:15:42.737Z,98839.84
2023-01-08T11:16:48.473Z,98837.75
2023-01-08T11:17:54.445Z,98843.03
2023-01-08T11:19:00.480Z,98840.13
2023-01-08T11:20:23.863Z,98840.88
2023-01-08T11:21:40.211Z,98836.66
2023-01-08T11:22:44.158Z,98837.56
2023-01-08T11:24:00.795Z,98843.69
2023-01-08T11:25:14.825Z,98837.56
2023-01-08T11:26:23.374Z,98830.47
2023-01-08T11:27:43.437Z,98832.09
2023-01-08T11:29:02.707Z,98824.91
2023-01-08T11:30:14.347Z,98823.88
2023-01-08T11:31:39.514Z,98817.75
2023-01-08T11:33:21.461Z,98822.00
2023-01-08T11:35:00.715Z,98817.66
2023-01-08T11:36:33.012Z,98812.91
2023-01-08T11:38:10.650Z,98815.66
2023-01-08T11:39:14.469Z,98814.72
2023-01-08T11:41:24.778Z,98803.41
2023-01-08T11:43:11.856Z,98804.91
2023-01-08T11:45:02.308Z,98803.03
2023-01-08T11:46:25.450Z,98798.47
2023-01-08T11:47:38.139Z,98801.00
2023-01-08T11:49:14.385Z,98802.63
2023-01-08T11:50:32.570Z,98799.88
2023-01-08T11:52:13.914Z,98797.13
2023-01-08T11:53:59.838Z,98796.97
2023-01-08T11:55:26.765Z,98789.88
2023-01-08T11:56:39.777Z,98791.34
2023-01-08T11:58:24.939Z,98788.59
2023-01-08T12:00:14.418Z,98785.00
2023-01-08T12:01:49.328Z,98783.97
2023-01-08T12:03:00.637Z,98781.00
2023-01-08T12:04:52.388Z,98773.66
2023-01-08T12:06:17.518Z,98776.09
2023-01-08T12:07:32.341Z,98780.34
2023-01-08T12:09:23.229Z,98770.59
2023-01-08T12:11:09.767Z,98765.88
2023-01-08T12:13:10.961Z,98768.28
2023-01-08T12:15:11.965Z,98768.00
2023-01-08T12:16:40.073Z,98768.84
2023-01-08T12:18:21.477Z,98766.63
2023-01-08T12:20:17.216Z,98758.38
2023-01-08T12:21:46.534Z,98756.50
2023-01-08T12:23:34.138Z,98753.47
2023-01-08T12:25:24.503Z,98751.34
2023-01-08T12:26:55.756Z,98745.75
2023-01-08T12:28:39.970Z,98744.50
2023-01-08T12:30:29.419Z,98742.59
2023-01-08T12:32:05.051Z,98734.53
2023-01-08T12:33:44.010Z,98730.94
2023-01-08T12:35:28.319Z,98735.19
2023-01-08T12:37:13.592Z,98734.22
2023-01-08T12:38:38.419Z,98727.03
2023-01-08T12:40:13.473Z,98725.22
2023-01-08T12:41:20.106Z,98725.03
2023-01-08T12:42:30.169Z,98718.88
2023-01-08T12:43:53.992Z,98723.97
2023-01-08T12:45:03.972Z,98716.88
2023-01-08T12:46:17.302Z,98719.41
2023-01-08T12:47:29.218Z,98714.22
2023-01-08T12:48:36.951Z,98712.31
2023-01-08T12:50:05.992Z,98717.41
2023-01-08T12:51:57.313Z,98722.47
2023-01-08T12:53:27.308Z,98712.53
2023-01-08T12:54:50.891Z,98712.31
2023-01-08T12:56:46.910Z,98712.00
2023-01-08T12:58:29.670Z,98709.09
2023-01-08T13:00:09.046Z,98709.00
2023-01-08T13:01:27.514Z,98711.44
2023-01-08T13:03:21.302Z,98704.97
2023-01-08T13:04:26.295Z,98703.81
2023-01-08T13:05:34.376Z,98698.50
2023-01-08T13:06:49.534Z,98699.13
2023-01-08T13:08:05.141Z,98701.69
2023-01-08T13:09:24.349Z,98702.41
2023-01-08T13:10:57.015Z,98698.47
2023-01-08T13:12:01.794Z,98704.38
2023-01-08T13:13:32.774Z,98697.09
2023-01-08T13:14:53.359Z,98699.50
2023-01-08T13:16:24.997Z,98692.16
2023-01-08T13:17:32.152Z,98700.97
2023-01-08T13:18:39.459Z,98696.53
2023-01-08T13:19:56.162Z,98701.47
2023-01-08T13:21:06.568Z,98704.88
2023-01-08T13:22:29.816Z,98705.38
2023-01-08T13:23:36.534Z,98705.81
2023-01-08T13:24:43.686Z,98703.44
2023-01-08T13:25:55.032Z,98705.09
2023-01-08T13:27:17.068Z,98709.06
2023-01-08T13:28:37.344Z,98700.34
2023-01-08T13:29:47.903Z,98707.28
2023-01-08T13:30:58.349Z,98704.31
2023-01-08T13:32:02.384Z,98706.94
2023-01-08T13:33:40.197Z,98706.38
2023-01-08T13:34:47.879Z,98709.22
2023-01-08T13:35:52.837Z,98709.47
2023-01-08T13:36:58.971Z,98708.81
2023-01-08T13:38:21.211Z,98715.19
2023-01-08T13:39:39.556Z,98712.16
2023-01-08T13:40:53.029Z,98708.66
2023-01-08T13:42:23.204Z,98708.16
2023-01-08T13:43:42.147Z,98715.16
2023-01-08T13:44:57.547Z,98711.66
2023-01-08T13:46:02.923Z,98711.78
2023-01-08T13:47:33.609Z,98710.94
2023-01-08T13:49:24.546Z,98707.66
2023-01-08T13:50:30.811Z,98708.03
2023-01-08T13:51:47.627Z,98713.06
2023-01-08T13:53:03.528Z,98708.72
2023-01-08T13:54:15.125Z,98716.53
2023-01-08T13:55:33.254Z,98719.19
2023-01-08T13:56:44.923Z,98712.22
2023-01-08T13:57:56.068Z,98705.31
2023-01-08T13:59:00.472Z,98713.38
2023-01-08T14:00:09.706Z,98717.00
2023-01-08T14:01:15.744Z,98714.59
2023-01-08T14:02:32.733Z,98710.34
2023-01-08T14:03:54.039Z,98727.31
2023-01-08T14:05:07.081Z,98721.28
2023-01-08T14:06:23.350Z,98710.78
2023-01-08T14:07:29.602Z,98718.00
2023-01-08T14:08:35.669Z,98717.41
2023-01-08T14:09:43.331Z,98715.69
2023-01-08T14:10:47.419Z,98713.16
2023-01-08T14:11:56.145Z,98718.56
2023-01-08T14:13:23.951Z,98717.84
2023-01-08T14:14:39.733Z,98719.25
2023-01-08T14:15:48.582Z,98720.22
2023-01-08T14:16:57.294Z,98720.41
2023-01-08T14:18:03.865Z,98711.75
2023-01-08T14:19:23.785Z,98725.03
2023-01-08T14:20:44.391Z,98719.72
2023-01-08T14:21:56.051Z,98723.22
2023-01-08T14:23:04.535Z,98725.13
2023-01-08T14:24:19.129Z,98725.13
2023-01-08T14:25:24.600Z,98719.97
2023-01-08T14:26:40.629Z,98724.50
2023-01-08T14:28:04.814Z,98725.56
2023-01-08T14:29:24.264Z,98727.59
2023-01-08T14:30:32.759Z,98733.84
2023-01-08T14:31:37.816Z,98726.25
2023-01-08T14:32:47.055Z,98731.66
2023-01-08T14:33:53.955Z,98730.03
2023-01-08T14:35:07.725Z,98730.47
2023-01-08T14:36:13.865Z,98732.63
2023-01-08T14:37:19.483Z,98740.66
2023-01-08T14:38:24.233Z,98731.13
2023-01-08T14:39:40.702Z,98737.59
2023-01-08T14:41:09.917Z,98735.16
2023-01-08T14:42:45.908Z,98729.44
2023-01-08T14:43:51.197Z,98727.16
2023-01-08T14:45:27.840Z,98733.34
2023-01-08T14:46:36.676Z,98736.22
2023-01-08T14:47:48.935Z,98728.59
2023-01-08T14:48:58.407Z,98728.81
2023-01-08T14:50:04.208Z,98722.81